createdAt,value
2019-05-25T00:00:55.960Z,8.30
2019-05-25T00:01:55.962Z,7.80
2019-05-25T00:02:55.969Z,7.70
2019-05-25T00:03:55.924Z,8.00
2019-05-25T00:04:55.910Z,7.70
2019-05-25T00:05:55.899Z,7.20
2019-05-25T00:06:55.900Z,7.90
2019-05-25T00:07:55.891Z,7.60
2019-05-25T00:08:55.869Z,8.00
2019-05-25T00:09:55.859Z,8.00
2019-05-25T00:10:55.848Z,7.90
2019-05-25T00:11:55.849Z,7.90
2019-05-25T00:12:55.827Z,8.20
2019-05-25T00:13:55.840Z,8.30
2019-05-25T00:14:55.808Z,8.10
2019-05-25T00:15:55.800Z,8.30
2019-05-25T00:16:55.810Z,7.50
2019-05-25T00:17:55.791Z,7.70
2019-05-25T00:18:55.768Z,8.20
2019-05-25T00:19:55.758Z,8.00
2019-05-25T00:20:55.742Z,7.70
2019-05-25T00:21:55.734Z,7.70
2019-05-25T00:22:55.728Z,7.10
2019-05-25T00:24:10.905Z,7.90
2019-05-25T00:24:56.687Z,7.90
2019-05-25T00:25:55.686Z,8.10
2019-05-25T00:26:55.681Z,8.00
2019-05-25T00:27:55.670Z,7.80
2019-05-25T00:28:55.637Z,7.80
2019-05-25T00:29:55.627Z,7.80
2019-05-25T00:30:55.625Z,7.70
2019-05-25T00:31:55.625Z,8.10
2019-05-25T00:32:55.610Z,8.00
2019-05-25T00:33:55.585Z,8.20
2019-05-25T00:34:55.576Z,8.40
2019-05-25T00:35:55.576Z,8.40
2019-05-25T00:36:55.546Z,7.90
2019-05-25T00:37:55.560Z,7.80
2019-05-25T00:38:55.540Z,7.70
2019-05-25T00:39:55.538Z,7.70
2019-05-25T00:40:55.507Z,8.20
2019-05-25T00:41:55.496Z,8.50
2019-05-25T00:42:55.499Z,8.70
2019-05-25T00:43:55.474Z,7.80
2019-05-25T00:44:55.464Z,8.00
2019-05-25T00:45:55.453Z,8.40
2019-05-25T00:46:55.443Z,7.80
2019-05-25T00:47:55.436Z,8.20
2019-05-25T00:48:55.434Z,8.50
2019-05-25T00:49:55.408Z,8.10
2019-05-25T00:50:55.400Z,8.50
2019-05-25T00:51:55.384Z,8.30
2019-05-25T00:52:55.397Z,9.00
2019-05-25T00:53:55.367Z,8.50
2019-05-25T00:54:55.355Z,8.50
2019-05-25T00:55:55.341Z,8.60
2019-05-25T00:56:55.330Z,9.00
2019-05-25T00:57:55.326Z,8.20
2019-05-25T00:58:55.319Z,8.40
2019-05-25T00:59:55.293Z,8.30
2019-05-25T01:00:55.318Z,8.40
2019-05-25T01:01:55.274Z,8.70
2019-05-25T01:02:55.282Z,8.30
2019-05-25T01:03:55.253Z,9.10
2019-05-25T01:04:55.242Z,8.30
2019-05-25T01:05:55.233Z,8.40
2019-05-25T01:06:55.224Z,8.50
2019-05-25T01:07:55.226Z,8.80
2019-05-25T01:08:55.204Z,8.20
2019-05-25T01:09:55.193Z,8.70
2019-05-25T01:10:55.181Z,8.20
2019-05-25T01:11:55.232Z,8.60
2019-05-25T01:12:55.261Z,8.10
2019-05-25T01:13:55.205Z,8.80
2019-05-25T01:14:55.145Z,8.90
2019-05-25T01:15:55.122Z,8.90
2019-05-25T01:16:55.121Z,8.60
2019-05-25T01:17:55.140Z,8.80
2019-05-25T01:18:55.092Z,8.20
2019-05-25T01:19:55.122Z,9.00
2019-05-25T01:20:55.091Z,8.80
2019-05-25T01:21:55.091Z,9.90
2019-05-25T01:22:55.070Z,8.90
2019-05-25T01:23:55.099Z,9.20
2019-05-25T01:24:55.061Z,8.60
2019-05-25T01:25:55.031Z,8.50
2019-05-25T01:26:55.078Z,9.00
2019-05-25T01:27:55.031Z,9.00
2019-05-25T01:28:55.038Z,9.10
2019-05-25T01:29:55.000Z,9.10
2019-05-25T01:30:54.999Z,8.30
2019-05-25T01:31:54.960Z,8.80
2019-05-25T01:32:54.959Z,9.00
2019-05-25T01:33:54.949Z,8.40
2019-05-25T01:34:54.978Z,8.80
2019-05-25T01:35:54.920Z,9.60
2019-05-25T01:36:54.899Z,9.30
2019-05-25T01:37:54.900Z,9.00
2019-05-25T01:38:54.892Z,9.40
2019-05-25T01:39:54.929Z,9.70
2019-05-25T01:40:54.880Z,9.00
2019-05-25T01:41:54.890Z,9.20
2019-05-25T01:42:54.858Z,9.10
2019-05-25T01:43:54.876Z,9.30
2019-05-25T01:44:54.877Z,9.70
2019-05-25T01:45:54.927Z,9.10
2019-05-25T01:46:54.858Z,10.10
2019-05-25T01:47:54.812Z,9.20
2019-05-25T01:48:54.817Z,9.00
2019-05-25T01:49:54.800Z,8.70
2019-05-25T01:50:54.787Z,9.00
2019-05-25T01:51:54.806Z,9.40
2019-05-25T01:52:54.819Z,9.50
2019-05-25T01:53:54.740Z,9.10
2019-05-25T01:54:59.784Z,9.20
2019-05-25T01:55:55.707Z,9.50
2019-05-25T01:56:54.696Z,9.10
2019-05-25T01:57:54.686Z,8.90
2019-05-25T01:58:54.687Z,9.50
2019-05-25T01:59:54.676Z,9.00
2019-05-25T02:00:54.657Z,8.70
2019-05-25T02:01:54.647Z,8.70
2019-05-25T02:02:54.636Z,9.20
2019-05-25T02:03:54.636Z,9.30
2019-05-25T02:04:54.620Z,9.70
2019-05-25T02:05:54.605Z,9.50
2019-05-25T02:06:54.596Z,9.30
2019-05-25T02:07:54.585Z,9.40
2019-05-25T02:08:54.587Z,9.30
2019-05-25T02:09:54.565Z,9.30
2019-05-25T02:10:54.555Z,9.70
2019-05-25T02:11:54.548Z,9.50
2019-05-25T02:12:54.535Z,8.60
2019-05-25T02:13:54.535Z,8.90
2019-05-25T02:14:54.517Z,8.80
2019-05-25T02:15:54.506Z,8.60
2019-05-25T02:16:54.501Z,9.00
2019-05-25T02:17:54.483Z,9.30
2019-05-25T02:18:54.485Z,9.90
2019-05-25T02:19:54.465Z,8.80
2019-05-25T02:20:54.456Z,9.30
2019-05-25T02:21:54.454Z,9.30
2019-05-25T02:22:54.449Z,9.10
2019-05-25T02:23:54.439Z,9.20
2019-05-25T02:24:54.413Z,9.20
2019-05-25T02:25:54.411Z,9.30
2019-05-25T02:26:54.412Z,9.20
2019-05-25T02:27:54.493Z,9.30
2019-05-25T02:28:54.445Z,9.00
2019-05-25T02:29:54.413Z,8.90
2019-05-25T02:30:54.426Z,9.30
2019-05-25T02:31:54.391Z,8.90
2019-05-25T02:32:54.361Z,9.10
2019-05-25T02:33:54.361Z,9.70
2019-05-25T02:34:54.352Z,9.00
2019-05-25T02:35:54.324Z,9.80
2019-05-25T02:36:54.313Z,9.50
2019-05-25T02:37:54.353Z,9.30
2019-05-25T02:38:54.301Z,9.60
2019-05-25T02:39:54.309Z,9.30
2019-05-25T02:40:54.271Z,9.90
2019-05-25T02:41:54.251Z,10.40
2019-05-25T02:42:54.240Z,9.10
2019-05-25T02:43:54.233Z,9.50
2019-05-25T02:44:54.230Z,8.90
2019-05-25T02:45:54.211Z,9.40
2019-05-25T02:46:54.201Z,9.50
2019-05-25T02:47:54.196Z,9.80
2019-05-25T02:48:54.180Z,9.70
2019-05-25T02:49:54.189Z,9.20
2019-05-25T02:50:54.161Z,9.90
2019-05-25T02:51:54.158Z,9.70
2019-05-25T02:52:54.140Z,9.60
2019-05-25T02:53:54.130Z,10.10
2019-05-25T02:54:54.138Z,10.40
2019-05-25T02:55:54.110Z,9.80
2019-05-25T02:56:54.106Z,9.30
2019-05-25T02:57:54.110Z,10.30
2019-05-25T02:58:54.094Z,10.00
2019-05-25T02:59:54.091Z,10.20
2019-05-25T03:00:54.120Z,9.50
2019-05-25T03:01:54.059Z,10.10
2019-05-25T03:02:54.049Z,9.90
2019-05-25T03:03:54.038Z,9.70
2019-05-25T03:04:54.078Z,10.10
2019-05-25T03:05:54.032Z,9.90
2019-05-25T03:06:54.020Z,9.60
2019-05-25T03:07:54.008Z,10.40
2019-05-25T03:08:53.997Z,9.90
2019-05-25T03:09:53.992Z,9.70
2019-05-25T03:10:53.966Z,10.10
2019-05-25T03:11:53.969Z,10.40
2019-05-25T03:12:53.966Z,10.30
2019-05-25T03:13:53.939Z,10.50
2019-05-25T03:14:53.958Z,10.40
2019-05-25T03:15:53.919Z,10.70
2019-05-25T03:16:53.934Z,10.50
2019-05-25T03:17:53.900Z,10.60
2019-05-25T03:18:53.894Z,10.60
2019-05-25T03:19:53.901Z,9.20
2019-05-25T03:20:53.888Z,9.20
2019-05-25T03:21:53.868Z,9.80
2019-05-25T03:22:53.851Z,10.30
2019-05-25T03:23:53.845Z,10.10
2019-05-25T03:24:53.839Z,9.80
2019-05-25T03:25:53.817Z,9.80
2019-05-25T03:26:53.815Z,10.00
2019-05-25T03:27:53.818Z,10.00
2019-05-25T03:28:53.804Z,10.70
2019-05-25T03:29:53.805Z,9.90
2019-05-25T03:30:53.768Z,10.50
2019-05-25T03:31:53.767Z,9.80
2019-05-25T03:32:53.758Z,10.60
2019-05-25T03:33:53.746Z,10.10
2019-05-25T03:34:53.727Z,9.90
2019-05-25T03:35:53.736Z,10.80
2019-05-25T03:36:53.752Z,10.80
2019-05-25T03:37:53.695Z,10.20
2019-05-25T03:38:53.701Z,10.60
2019-05-25T03:39:53.685Z,10.10
2019-05-25T03:40:53.684Z,10.20
2019-05-25T03:41:53.666Z,10.30
2019-05-25T03:42:53.674Z,10.30
2019-05-25T03:43:53.643Z,11.00
2019-05-25T03:44:53.632Z,10.40
2019-05-25T03:45:53.634Z,10.30
2019-05-25T03:46:53.632Z,10.90
2019-05-25T03:47:53.620Z,10.90
2019-05-25T03:48:53.593Z,10.10
2019-05-25T03:49:53.597Z,10.10
2019-05-25T03:50:53.618Z,9.80
2019-05-25T03:51:53.581Z,9.60
2019-05-25T03:52:53.642Z,10.50
2019-05-25T03:53:53.545Z,10.20
2019-05-25T03:54:53.590Z,10.30
2019-05-25T03:56:05.292Z,9.70
2019-05-25T03:56:54.517Z,9.80
2019-05-25T03:57:53.520Z,10.60
2019-05-25T03:58:53.541Z,9.90
2019-05-25T03:59:53.491Z,10.00
2019-05-25T04:00:53.510Z,10.10
2019-05-25T04:01:53.462Z,9.40
2019-05-25T04:02:53.471Z,9.90
2019-05-25T04:03:53.441Z,9.80
2019-05-25T04:04:53.433Z,9.80
2019-05-25T04:05:53.439Z,9.90
2019-05-25T04:06:53.425Z,10.00
2019-05-25T04:07:53.404Z,10.00
2019-05-25T04:08:53.412Z,10.30
2019-05-25T04:09:53.382Z,10.00
2019-05-25T04:10:53.444Z,9.80
2019-05-25T04:11:53.362Z,10.40
2019-05-25T04:12:53.359Z,9.80
2019-05-25T04:13:53.359Z,10.00
2019-05-25T04:14:53.330Z,10.70
2019-05-25T04:15:53.353Z,9.80
2019-05-25T04:16:53.309Z,9.70
2019-05-25T04:17:53.304Z,9.40
2019-05-25T04:18:53.293Z,9.90
2019-05-25T04:19:53.296Z,9.70
2019-05-25T04:20:53.291Z,9.50
2019-05-25T04:21:53.258Z,9.70
2019-05-25T04:22:53.249Z,9.90
2019-05-25T04:23:53.248Z,9.50
2019-05-25T04:24:53.251Z,9.80
2019-05-25T04:25:53.227Z,9.80
2019-05-25T04:26:53.227Z,9.30
2019-05-25T04:27:53.220Z,9.00
2019-05-25T04:28:53.199Z,9.80
2019-05-25T04:29:53.187Z,9.70
2019-05-25T04:30:53.181Z,9.40
2019-05-25T04:31:53.186Z,9.40
2019-05-25T04:32:53.166Z,9.80
2019-05-25T04:33:53.166Z,9.70
2019-05-25T04:34:53.141Z,10.00
2019-05-25T04:35:53.206Z,10.30
2019-05-25T04:36:53.150Z,9.70
2019-05-25T04:37:53.107Z,9.90
2019-05-25T04:38:53.135Z,9.40
2019-05-25T04:39:53.086Z,9.60
2019-05-25T04:40:53.076Z,9.80
2019-05-25T04:41:53.080Z,10.40
2019-05-25T04:42:53.077Z,10.40
2019-05-25T04:43:53.045Z,9.90
2019-05-25T04:44:53.036Z,9.70
2019-05-25T04:45:53.026Z,10.20
2019-05-25T04:46:53.038Z,10.60
2019-05-25T04:47:53.026Z,10.10
2019-05-25T04:48:53.011Z,9.90
2019-05-25T04:49:52.995Z,10.20
2019-05-25T04:50:52.990Z,9.60
2019-05-25T04:51:52.983Z,9.60
2019-05-25T04:52:52.987Z,9.80
2019-05-25T04:53:52.957Z,10.30
2019-05-25T04:54:52.944Z,9.30
2019-05-25T04:55:52.935Z,9.60
2019-05-25T04:56:52.948Z,10.60
2019-05-25T04:57:52.913Z,9.50
2019-05-25T04:58:52.903Z,10.70
2019-05-25T04:59:52.893Z,10.80
2019-05-25T05:00:52.883Z,10.60
2019-05-25T05:01:52.897Z,11.00
2019-05-25T05:02:52.872Z,10.50
2019-05-25T05:03:52.855Z,9.60
2019-05-25T05:04:52.853Z,10.10
2019-05-25T05:05:52.851Z,10.10
2019-05-25T05:06:52.859Z,10.60
2019-05-25T05:07:52.814Z,9.60
2019-05-25T05:08:52.812Z,10.00
2019-05-25T05:10:02.207Z,10.00
2019-05-25T05:10:53.782Z,10.30
2019-05-25T05:11:52.783Z,9.90
2019-05-25T05:12:52.786Z,10.20
2019-05-25T05:13:52.753Z,9.80
2019-05-25T05:14:56.253Z,10.00
2019-05-25T05:15:52.742Z,9.70
2019-05-25T05:16:52.741Z,10.00
2019-05-25T05:17:52.724Z,10.30
2019-05-25T05:18:52.710Z,10.10
2019-05-25T05:19:52.701Z,10.00
2019-05-25T05:20:52.681Z,10.10
2019-05-25T05:21:52.691Z,10.60
2019-05-25T05:22:52.669Z,10.50
2019-05-25T05:23:52.668Z,9.90
2019-05-25T05:24:52.651Z,10.30
2019-05-25T05:25:52.640Z,10.40
2019-05-25T05:26:56.113Z,10.50
2019-05-25T05:27:52.630Z,10.00
2019-05-25T05:28:52.615Z,9.90
2019-05-25T05:29:52.600Z,9.90
2019-05-25T05:30:52.588Z,10.80
2019-05-25T05:31:52.597Z,10.80
2019-05-25T05:32:52.577Z,9.80
2019-05-25T05:33:52.559Z,11.20
2019-05-25T05:34:52.560Z,10.80
2019-05-25T05:35:52.540Z,10.70
2019-05-25T05:36:52.560Z,10.50
2019-05-25T05:37:52.522Z,10.10
2019-05-25T05:38:52.512Z,9.90
2019-05-25T05:39:52.499Z,10.20
2019-05-25T05:40:52.506Z,10.50
2019-05-25T05:41:52.576Z,10.30
2019-05-25T05:42:52.530Z,11.00
2019-05-25T05:43:52.485Z,10.80
2019-05-25T05:44:52.528Z,10.10
2019-05-25T05:45:52.465Z,10.70
2019-05-25T05:46:52.477Z,10.80
2019-05-25T05:47:52.477Z,10.40
2019-05-25T05:48:52.467Z,11.20
2019-05-25T05:49:52.417Z,10.90
2019-05-25T05:50:52.407Z,11.00
2019-05-25T05:51:52.436Z,11.10
2019-05-25T05:52:52.406Z,11.40
2019-05-25T05:53:52.368Z,10.30
2019-05-25T05:54:52.365Z,10.40
2019-05-25T05:55:52.346Z,10.70
2019-05-25T05:56:52.346Z,10.70
2019-05-25T05:57:52.335Z,10.80
2019-05-25T05:58:52.327Z,10.40
2019-05-25T05:59:52.318Z,10.20
2019-05-25T06:00:52.315Z,10.30
2019-05-25T06:01:52.304Z,10.90
2019-05-25T06:02:52.295Z,10.10
2019-05-25T06:03:52.405Z,9.90
2019-05-25T06:04:52.303Z,9.80
2019-05-25T06:05:52.396Z,10.70
2019-05-25T06:06:52.375Z,9.90
2019-05-25T06:07:52.254Z,9.70
2019-05-25T06:08:52.233Z,10.20
2019-05-25T06:09:52.204Z,10.10
2019-05-25T06:10:52.223Z,9.80
2019-05-25T06:11:52.195Z,10.50
2019-05-25T06:12:52.223Z,10.60
2019-05-25T06:13:52.173Z,10.40
2019-05-25T06:14:52.164Z,9.70
2019-05-25T06:15:55.336Z,9.90
2019-05-25T06:16:52.153Z,9.30
2019-05-25T06:17:52.154Z,9.80
2019-05-25T06:18:52.124Z,9.50
2019-05-25T06:19:52.113Z,9.50
2019-05-25T06:20:52.092Z,9.60
2019-05-25T06:21:52.081Z,9.70
2019-05-25T06:22:52.081Z,9.50
2019-05-25T06:23:52.062Z,9.60
2019-05-25T06:24:52.101Z,9.00
2019-05-25T06:25:52.570Z,9.50
2019-05-25T06:26:52.031Z,9.30
2019-05-25T06:27:52.033Z,9.40
2019-05-25T06:28:52.001Z,9.10
2019-05-25T06:29:51.991Z,9.30
2019-05-25T06:30:51.990Z,8.80
2019-05-25T06:31:52.043Z,9.80
2019-05-25T06:32:51.978Z,9.20
2019-05-25T06:33:51.953Z,9.90
2019-05-25T06:34:51.940Z,9.00
2019-05-25T06:35:51.931Z,9.20
2019-05-25T06:36:51.920Z,9.30
2019-05-25T06:37:52.010Z,9.60
2019-05-25T06:38:51.930Z,8.70
2019-05-25T06:39:51.957Z,9.60
2019-05-25T06:40:51.910Z,9.00
2019-05-25T06:41:51.900Z,9.30
2019-05-25T06:42:51.903Z,9.60
2019-05-25T06:43:51.900Z,9.10
2019-05-25T06:44:51.872Z,9.50
2019-05-25T06:45:51.829Z,9.70
2019-05-25T06:46:51.838Z,9.60
2019-05-25T06:47:51.829Z,9.40
2019-05-25T06:48:51.853Z,9.20
2019-05-25T06:49:51.821Z,8.90
2019-05-25T06:50:51.778Z,8.90
2019-05-25T06:51:51.769Z,8.80
2019-05-25T06:52:51.778Z,8.40
2019-05-25T06:53:51.738Z,9.40
2019-05-25T06:54:51.738Z,8.50
2019-05-25T06:55:51.729Z,8.40
2019-05-25T06:56:51.727Z,8.40
2019-05-25T06:57:51.717Z,8.70
2019-05-25T06:58:51.698Z,8.00
2019-05-25T06:59:51.680Z,8.60
2019-05-25T07:00:51.670Z,8.50
2019-05-25T07:01:51.653Z,8.70
2019-05-25T07:02:51.668Z,8.30
2019-05-25T07:03:51.676Z,8.10
2019-05-25T07:04:51.640Z,8.30
2019-05-25T07:05:51.605Z,8.40
2019-05-25T07:06:51.597Z,7.60
2019-05-25T07:07:54.498Z,8.00
2019-05-25T07:08:51.576Z,8.50
2019-05-25T07:09:51.547Z,8.40
2019-05-25T07:10:51.556Z,8.30
2019-05-25T07:11:51.534Z,8.10
2019-05-25T07:12:51.549Z,8.20
2019-05-25T07:13:51.514Z,8.00
2019-05-25T07:14:51.493Z,8.00
2019-05-25T07:15:51.485Z,8.40
2019-05-25T07:16:51.476Z,7.70
2019-05-25T07:17:51.476Z,8.20
2019-05-25T07:18:51.447Z,8.20
2019-05-25T07:19:51.475Z,8.40
2019-05-25T07:20:51.447Z,7.70
2019-05-25T07:21:51.445Z,7.90
2019-05-25T07:22:51.477Z,8.20
2019-05-25T07:23:51.465Z,8.10
2019-05-25T07:24:51.419Z,7.80
2019-05-25T07:25:51.450Z,8.00
2019-05-25T07:26:51.364Z,7.80
2019-05-25T07:27:59.479Z,8.20
2019-05-25T07:28:52.364Z,7.90
2019-05-25T07:29:51.363Z,7.90
2019-05-25T07:30:51.335Z,7.80
2019-05-25T07:31:51.295Z,7.50
2019-05-25T07:32:51.292Z,7.70
2019-05-25T07:33:51.322Z,7.30
2019-05-25T07:34:51.273Z,8.00
2019-05-25T07:35:51.267Z,7.30
2019-05-25T07:36:51.254Z,7.20
2019-05-25T07:37:51.233Z,7.00
2019-05-25T07:38:51.263Z,7.40
2019-05-25T07:39:51.203Z,7.40
2019-05-25T07:40:51.202Z,7.20
2019-05-25T07:41:51.334Z,7.40
2019-05-25T07:42:51.184Z,7.70
2019-05-25T07:43:51.193Z,7.20
2019-05-25T07:44:51.155Z,7.30
2019-05-25T07:45:51.123Z,7.10
2019-05-25T07:46:51.112Z,7.90
2019-05-25T07:47:51.102Z,7.30
2019-05-25T07:48:51.104Z,7.30
2019-05-25T07:49:51.081Z,7.10
2019-05-25T07:50:51.063Z,7.20
2019-05-25T07:51:51.052Z,7.00
2019-05-25T07:52:51.107Z,6.70
2019-05-25T07:53:51.033Z,6.80
2019-05-25T07:54:51.012Z,6.80
2019-05-25T07:55:51.033Z,6.80
2019-05-25T07:56:51.004Z,6.90
2019-05-25T07:57:50.993Z,6.80
2019-05-25T07:58:50.971Z,6.40
2019-05-25T07:59:50.951Z,6.90
2019-05-25T08:00:50.942Z,6.90
2019-05-25T08:01:50.921Z,7.10
2019-05-25T08:02:50.920Z,7.80
2019-05-25T08:03:50.956Z,8.10
2019-05-25T08:04:50.890Z,8.10
2019-05-25T08:05:50.883Z,7.30
2019-05-25T08:06:50.870Z,7.60
2019-05-25T08:07:50.871Z,8.30
2019-05-25T08:08:50.850Z,7.60
2019-05-25T08:09:50.926Z,7.60
2019-05-25T08:10:50.822Z,7.00
2019-05-25T08:11:50.800Z,7.20
2019-05-25T08:12:50.791Z,7.10
2019-05-25T08:13:50.791Z,7.20
2019-05-25T08:14:50.810Z,7.00
2019-05-25T08:15:50.785Z,6.80
2019-05-25T08:16:50.748Z,6.90
2019-05-25T08:17:50.731Z,6.80
2019-05-25T08:18:50.731Z,6.10
2019-05-25T08:19:50.725Z,6.50
2019-05-25T08:20:50.698Z,6.80
2019-05-25T08:21:50.683Z,6.70
2019-05-25T08:22:50.680Z,7.30
2019-05-25T08:23:50.682Z,6.70
2019-05-25T08:24:50.705Z,7.10
2019-05-25T08:25:50.640Z,7.40
2019-05-25T08:26:50.640Z,7.40
2019-05-25T08:27:50.629Z,7.90
2019-05-25T08:28:51.746Z,7.20
2019-05-25T08:29:50.613Z,7.30
2019-05-25T08:30:50.591Z,7.00
2019-05-25T08:31:50.569Z,6.70
2019-05-25T08:32:50.609Z,6.50
2019-05-25T08:33:50.539Z,7.00
2019-05-25T08:34:50.539Z,7.50
2019-05-25T08:35:50.588Z,7.80
2019-05-25T08:36:50.514Z,7.60
2019-05-25T08:37:50.506Z,8.10
2019-05-25T08:38:50.489Z,8.00
2019-05-25T08:39:50.487Z,7.90
2019-05-25T08:40:50.468Z,7.40
2019-05-25T08:41:50.465Z,7.20
2019-05-25T08:42:50.448Z,7.30
2019-05-25T08:43:50.427Z,6.80
2019-05-25T08:44:50.428Z,6.90
2019-05-25T08:45:50.409Z,6.50
2019-05-25T08:46:50.388Z,7.00
2019-05-25T08:47:50.380Z,6.40
2019-05-25T08:48:50.379Z,6.70
2019-05-25T08:49:50.369Z,6.00
2019-05-25T08:50:50.348Z,6.30
2019-05-25T08:51:50.369Z,6.00
2019-05-25T08:52:50.346Z,6.20
2019-05-25T08:53:50.348Z,6.20
2019-05-25T08:54:50.321Z,6.40
2019-05-25T08:55:50.308Z,6.00
2019-05-25T08:56:50.317Z,5.50
2019-05-25T08:57:50.290Z,5.60
2019-05-25T08:58:50.283Z,5.40
2019-05-25T08:59:50.289Z,5.30
2019-05-25T09:00:50.257Z,5.00
2019-05-25T09:01:50.418Z,5.40
2019-05-25T09:02:50.224Z,5.20
2019-05-25T09:03:50.220Z,4.70
2019-05-25T09:04:50.237Z,5.00
2019-05-25T09:05:50.243Z,4.70
2019-05-25T09:06:50.201Z,4.80
2019-05-25T09:07:50.168Z,4.70
2019-05-25T09:08:50.162Z,5.00
2019-05-25T09:09:50.161Z,5.10
2019-05-25T09:10:50.149Z,5.10
2019-05-25T09:11:50.137Z,5.50
2019-05-25T09:12:50.204Z,5.20
2019-05-25T09:13:50.118Z,5.10
2019-05-25T09:14:50.097Z,5.10
2019-05-25T09:15:50.097Z,5.20
2019-05-25T09:16:50.088Z,5.00
2019-05-25T09:17:50.082Z,5.20
2019-05-25T09:18:50.919Z,4.80
2019-05-25T09:19:50.047Z,4.70
2019-05-25T09:20:50.027Z,5.00
2019-05-25T09:22:01.904Z,5.00
2019-05-25T09:22:51.012Z,5.00
2019-05-25T09:23:50.040Z,4.70
2019-05-25T09:24:50.012Z,4.90
2019-05-25T09:25:49.977Z,4.90
2019-05-25T09:26:50.023Z,4.60
2019-05-25T09:27:49.965Z,4.80
2019-05-25T09:29:03.564Z,4.90
2019-05-25T09:29:50.957Z,5.10
2019-05-25T09:30:49.920Z,4.70
2019-05-25T09:31:49.900Z,4.80
2019-05-25T09:32:49.885Z,4.70
2019-05-25T09:33:49.877Z,4.90
2019-05-25T09:34:49.858Z,4.70
2019-05-25T09:35:49.866Z,4.50
2019-05-25T09:36:49.857Z,4.20
2019-05-25T09:37:49.829Z,4.00
2019-05-25T09:38:49.817Z,4.20
2019-05-25T09:39:49.815Z,4.30
2019-05-25T09:40:49.806Z,4.30
2019-05-25T09:41:49.792Z,4.20
2019-05-25T09:42:49.841Z,4.60
2019-05-25T09:43:49.758Z,4.40
2019-05-25T09:44:49.747Z,4.90
2019-05-25T09:45:49.759Z,4.90
2019-05-25T09:46:49.727Z,5.20
2019-05-25T09:47:49.717Z,4.90
2019-05-25T09:48:49.742Z,5.00
2019-05-25T09:49:49.696Z,4.90
2019-05-25T09:50:49.697Z,5.20
2019-05-25T09:51:49.676Z,4.80
2019-05-25T09:52:49.667Z,5.00
2019-05-25T09:53:49.656Z,5.40
2019-05-25T09:54:51.661Z,5.90
2019-05-25T09:55:49.646Z,5.90
2019-05-25T09:56:49.626Z,5.30
2019-05-25T09:57:49.619Z,5.40
2019-05-25T09:58:49.598Z,5.00
2019-05-25T09:59:49.588Z,5.10
2019-05-25T10:00:49.588Z,5.20
2019-05-25T10:01:49.567Z,4.80
2019-05-25T10:02:49.765Z,4.80
2019-05-25T10:03:49.556Z,4.60
2019-05-25T10:04:49.548Z,5.10
2019-05-25T10:05:49.537Z,5.00
2019-05-25T10:06:49.506Z,4.70
2019-05-25T10:07:49.496Z,4.80
2019-05-25T10:08:49.489Z,5.00
2019-05-25T10:09:49.492Z,4.90
2019-05-25T10:10:49.479Z,4.70
2019-05-25T10:11:49.456Z,4.80
2019-05-25T10:12:49.448Z,4.80
2019-05-25T10:13:49.436Z,4.80
2019-05-25T10:14:49.417Z,4.80
2019-05-25T10:15:49.426Z,4.90
2019-05-25T10:16:49.409Z,4.80
2019-05-25T10:17:49.396Z,4.40
2019-05-25T10:18:49.381Z,4.40
2019-05-25T10:19:49.369Z,4.90
2019-05-25T10:20:49.386Z,4.30
2019-05-25T10:21:49.345Z,4.60
2019-05-25T10:22:49.336Z,4.90
2019-05-25T10:23:49.326Z,4.70
2019-05-25T10:24:49.307Z,4.50
2019-05-25T10:25:49.326Z,4.70
2019-05-25T10:26:49.287Z,5.20
2019-05-25T10:27:49.277Z,4.50
2019-05-25T10:28:49.266Z,4.40
2019-05-25T10:29:49.257Z,4.70
2019-05-25T10:30:49.256Z,4.50
2019-05-25T10:31:49.238Z,4.10
2019-05-25T10:32:49.226Z,4.40
2019-05-25T10:33:49.219Z,4.10
2019-05-25T10:34:49.205Z,4.60
2019-05-25T10:35:49.206Z,4.70
2019-05-25T10:36:49.180Z,4.40
2019-05-25T10:37:49.166Z,4.70
2019-05-25T10:38:49.155Z,4.90
2019-05-25T10:39:49.146Z,4.60
2019-05-25T10:40:49.148Z,4.70
2019-05-25T10:41:49.127Z,4.90
2019-05-25T10:42:49.115Z,5.20
2019-05-25T10:43:49.096Z,5.10
2019-05-25T10:44:49.096Z,5.00
2019-05-25T10:45:49.150Z,5.20
2019-05-25T10:46:49.075Z,5.40
2019-05-25T10:47:49.175Z,4.80
2019-05-25T10:48:49.057Z,4.70
2019-05-25T10:49:49.035Z,4.40
2019-05-25T10:50:49.036Z,4.80
2019-05-25T10:51:49.021Z,4.70
2019-05-25T10:52:49.005Z,5.20
2019-05-25T10:53:48.989Z,4.90
2019-05-25T10:54:49.009Z,5.20
2019-05-25T10:55:48.976Z,5.30
2019-05-25T10:56:48.960Z,5.00
2019-05-25T10:57:48.947Z,4.60
2019-05-25T10:58:48.936Z,4.90
2019-05-25T10:59:52.882Z,5.00
2019-05-25T11:00:48.948Z,5.00
2019-05-25T11:01:48.941Z,5.20
2019-05-25T11:02:48.894Z,5.30
2019-05-25T11:03:48.882Z,5.40
2019-05-25T11:04:48.867Z,5.00
2019-05-25T11:05:48.875Z,5.40
2019-05-25T11:06:48.845Z,5.60
2019-05-25T11:07:48.835Z,5.60
2019-05-25T11:08:48.826Z,5.50
2019-05-25T11:09:48.816Z,5.80
2019-05-25T11:10:48.821Z,5.70
2019-05-25T11:11:48.798Z,5.80
2019-05-25T11:12:48.786Z,5.60
2019-05-25T11:13:48.781Z,5.50
2019-05-25T11:14:48.870Z,5.50
2019-05-25T11:15:48.763Z,5.00
2019-05-25T11:16:48.881Z,5.30
2019-05-25T11:17:48.726Z,5.10
2019-05-25T11:18:48.733Z,5.30
2019-05-25T11:19:48.705Z,5.30
2019-05-25T11:20:48.705Z,5.50
2019-05-25T11:21:48.685Z,5.50
2019-05-25T11:22:48.682Z,5.40
2019-05-25T11:23:48.658Z,5.20
2019-05-25T11:24:48.666Z,5.80
2019-05-25T11:25:48.644Z,5.30
2019-05-25T11:26:48.633Z,5.30
2019-05-25T11:27:48.619Z,4.90
2019-05-25T11:28:48.603Z,5.20
2019-05-25T11:29:48.600Z,5.10
2019-05-25T11:30:48.803Z,5.40
2019-05-25T11:31:56.440Z,5.20
2019-05-25T11:32:49.555Z,5.50
2019-05-25T11:33:48.545Z,4.90
2019-05-25T11:34:48.545Z,5.50
2019-05-25T11:35:48.524Z,5.50
2019-05-25T11:36:48.527Z,5.20
2019-05-25T11:37:48.506Z,5.40
2019-05-25T11:38:48.498Z,5.20
2019-05-25T11:39:48.477Z,5.10
2019-05-25T11:40:48.478Z,5.10
2019-05-25T11:41:48.474Z,5.10
2019-05-25T11:42:48.445Z,4.50
2019-05-25T11:43:48.434Z,4.90
2019-05-25T11:44:48.424Z,4.70
2019-05-25T11:45:48.426Z,5.10
2019-05-25T11:46:48.417Z,4.90
2019-05-25T11:47:48.418Z,4.60
2019-05-25T11:48:48.383Z,5.00
2019-05-25T11:49:48.384Z,4.90
2019-05-25T11:50:48.370Z,4.80
2019-05-25T11:51:48.354Z,4.60
2019-05-25T11:52:48.369Z,4.50
2019-05-25T11:53:48.324Z,4.80
2019-05-25T11:54:48.314Z,4.60
2019-05-25T11:55:48.351Z,4.90
2019-05-25T11:56:48.307Z,4.70
2019-05-25T11:57:48.319Z,4.90
2019-05-25T11:58:48.275Z,4.60
2019-05-25T11:59:48.274Z,4.90
2019-05-25T12:00:51.579Z,4.80
2019-05-25T12:01:48.254Z,4.70
2019-05-25T12:02:48.238Z,4.70
2019-05-25T12:03:48.223Z,4.90
2019-05-25T12:04:48.206Z,5.00
2019-05-25T12:05:48.204Z,5.20
2019-05-25T12:06:48.193Z,5.40
2019-05-25T12:07:48.171Z,4.90
2019-05-25T12:08:48.158Z,5.60
2019-05-25T12:09:48.207Z,5.00
2019-05-25T12:10:48.134Z,5.60
2019-05-25T12:11:48.144Z,5.30
2019-05-25T12:12:48.114Z,5.30
2019-05-25T12:13:48.114Z,5.20
2019-05-25T12:14:48.093Z,5.60
2019-05-25T12:15:48.153Z,5.60
2019-05-25T12:16:48.141Z,5.40
2019-05-25T12:17:48.064Z,6.30
2019-05-25T12:18:48.049Z,6.10
2019-05-25T12:19:48.033Z,5.70
2019-05-25T12:20:48.131Z,7.00
2019-05-25T12:21:48.099Z,6.70
2019-05-25T12:22:48.105Z,7.30
2019-05-25T12:23:48.121Z,6.80
2019-05-25T12:24:47.995Z,7.50
2019-05-25T12:25:48.062Z,7.10
2019-05-25T12:26:47.987Z,7.30
2019-05-25T12:27:49.271Z,7.80
2019-05-25T12:28:47.943Z,7.70
2019-05-25T12:29:47.926Z,8.10
2019-05-25T12:30:47.924Z,10.10
2019-05-25T12:31:47.926Z,10.40
2019-05-25T12:32:47.903Z,8.40
2019-05-25T12:33:47.883Z,8.40
2019-05-25T12:34:47.893Z,8.10
2019-05-25T12:35:47.864Z,9.60
2019-05-25T12:36:47.863Z,9.10
2019-05-25T12:37:47.845Z,9.30
2019-05-25T12:38:47.823Z,9.70
2019-05-25T12:39:47.823Z,10.60
2019-05-25T12:40:53.659Z,10.60
2019-05-25T12:41:48.802Z,10.00
2019-05-25T12:42:47.789Z,11.20
2019-05-25T12:43:47.763Z,10.20
2019-05-25T12:44:47.764Z,9.60
2019-05-25T12:45:47.742Z,9.60
2019-05-25T12:46:47.743Z,8.90
2019-05-25T12:47:47.723Z,9.00
2019-05-25T12:48:47.703Z,8.20
2019-05-25T12:49:50.951Z,8.40
2019-05-25T12:50:47.685Z,7.80
2019-05-25T12:51:47.685Z,7.50
2019-05-25T12:52:47.662Z,8.60
2019-05-25T12:53:47.648Z,8.60
2019-05-25T12:54:47.628Z,8.60
2019-05-25T12:55:47.782Z,8.90
2019-05-25T12:56:47.642Z,8.50
2019-05-25T12:57:47.645Z,8.60
2019-05-25T12:58:50.127Z,8.60
2019-05-25T12:59:47.582Z,8.70
2019-05-25T13:00:55.687Z,8.80
2019-05-25T13:01:48.603Z,9.10
2019-05-25T13:02:47.580Z,9.00
2019-05-25T13:03:47.532Z,9.50
2019-05-25T13:04:47.541Z,8.40
2019-05-25T13:05:47.520Z,8.60
2019-05-25T13:06:47.506Z,8.60
2019-05-25T13:07:47.540Z,8.70
2019-05-25T13:08:47.470Z,8.60
2019-05-25T13:09:47.471Z,8.30
2019-05-25T13:10:47.468Z,9.20
2019-05-25T13:11:47.450Z,8.70
2019-05-25T13:12:47.413Z,9.70
2019-05-25T13:13:47.403Z,8.70
2019-05-25T13:14:47.391Z,8.90